createdAt,value
2022-09-28T00:01:23.200Z,5.53
2022-09-28T00:03:53.553Z,6.00
2022-09-28T00:06:23.909Z,5.55
2022-09-28T00:08:51.439Z,5.03
2022-09-28T00:11:21.050Z,5.47
2022-09-28T00:13:53.619Z,4.65
2022-09-28T00:16:24.347Z,4.93
2022-09-28T00:18:52.618Z,4.65
2022-09-28T00:21:26.233Z,4.18
2022-09-28T00:24:15.081Z,4.03
2022-09-28T00:26:51.418Z,4.85
2022-09-28T00:29:38.913Z,4.13
2022-09-28T00:32:16.991Z,5.00
2022-09-28T00:34:49.226Z,4.80
2022-09-28T00:37:16.609Z,4.73
2022-09-28T00:39:44.708Z,4.18
2022-09-28T00:42:15.396Z,5.60
2022-09-28T00:44:49.298Z,4.50
2022-09-28T00:48:04.035Z,5.47
2022-09-28T00:50:36.347Z,5.03
2022-09-28T00:53:18.252Z,5.50
2022-09-28T00:55:57.770Z,3.92
2022-09-28T00:58:30.178Z,4.50
2022-09-28T01:01:00.645Z,4.40
2022-09-28T01:03:29.306Z,4.53
2022-09-28T01:05:59.462Z,4.20
2022-09-28T01:08:29.845Z,4.40
2022-09-28T01:10:59.578Z,3.83
2022-09-28T01:13:27.720Z,4.32
2022-09-28T01:16:02.398Z,5.03
2022-09-28T01:18:40.420Z,4.65
2022-09-28T01:21:22.736Z,4.43
2022-09-28T01:24:10.653Z,5.13
2022-09-28T01:26:52.403Z,4.13
2022-09-28T01:29:36.955Z,4.70
2022-09-28T01:32:20.061Z,4.57
2022-09-28T01:35:03.416Z,4.50
2022-09-28T01:37:37.719Z,3.85
2022-09-28T01:40:07.113Z,5.00
2022-09-28T01:42:38.495Z,4.57
2022-09-28T01:45:12.826Z,4.35
2022-09-28T01:47:41.745Z,3.83
2022-09-28T01:50:16.527Z,4.18
2022-09-28T01:53:16.407Z,3.80
2022-09-28T01:55:52.183Z,4.75
2022-09-28T01:58:37.134Z,4.80
2022-09-28T02:01:10.404Z,4.53
2022-09-28T02:03:54.718Z,3.90
2022-09-28T02:06:46.151Z,5.15
2022-09-28T02:09:22.913Z,4.78
2022-09-28T02:11:58.123Z,3.60
2022-09-28T02:14:26.669Z,4.00
2022-09-28T02:16:55.806Z,3.83
2022-09-28T02:19:28.815Z,4.13
2022-09-28T02:22:13.858Z,4.20
2022-09-28T02:24:49.523Z,4.25
2022-09-28T02:27:24.562Z,4.35
2022-09-28T02:29:51.939Z,3.42
2022-09-28T02:32:21.226Z,3.72
2022-09-28T02:34:49.016Z,4.20
2022-09-28T02:37:16.481Z,4.03
2022-09-28T02:39:43.860Z,4.38
2022-09-28T02:42:19.125Z,3.75
2022-09-28T02:44:49.449Z,4.32
2022-09-28T02:47:31.152Z,3.77
2022-09-28T02:50:30.312Z,4.43
2022-09-28T02:53:00.403Z,3.97
2022-09-28T02:56:02.175Z,3.95
2022-09-28T02:59:11.561Z,4.78
2022-09-28T03:02:14.663Z,4.27
2022-09-28T03:05:01.897Z,3.80
2022-09-28T03:08:00.614Z,3.92
2022-09-28T03:10:45.433Z,4.05
2022-09-28T03:13:16.748Z,3.90
2022-09-28T03:15:48.612Z,4.23
2022-09-28T03:18:17.726Z,4.13
2022-09-28T03:20:45.408Z,4.15
2022-09-28T03:23:24.439Z,3.92
2022-09-28T03:25:52.725Z,4.78
2022-09-28T03:28:21.548Z,4.13
2022-09-28T03:30:49.020Z,4.05
2022-09-28T03:33:16.384Z,4.85
2022-09-28T03:35:48.353Z,3.47
2022-09-28T03:38:15.735Z,4.18
2022-09-28T03:40:43.512Z,4.63
2022-09-28T03:43:11.119Z,3.95
2022-09-28T03:45:38.336Z,4.88
2022-09-28T03:48:05.642Z,4.35
2022-09-28T03:50:32.770Z,4.40
2022-09-28T03:53:03.776Z,4.27
2022-09-28T03:55:31.305Z,4.72
2022-09-28T03:57:58.628Z,4.45
2022-09-28T04:00:26.044Z,3.88
2022-09-28T04:02:54.360Z,4.30
2022-09-28T04:05:21.788Z,4.33
2022-09-28T04:07:49.165Z,4.22
2022-09-28T04:10:16.515Z,4.22
2022-09-28T04:12:43.762Z,4.13
2022-09-28T04:15:11.288Z,3.67
2022-09-28T04:17:40.221Z,4.10
2022-09-28T04:20:08.230Z,3.72
2022-09-28T04:22:37.878Z,4.72
2022-09-28T04:25:06.084Z,4.38
2022-09-28T04:27:51.668Z,3.90
2022-09-28T04:30:18.991Z,4.00
2022-09-28T04:32:49.686Z,4.18
2022-09-28T04:35:17.152Z,3.97
2022-09-28T04:37:44.511Z,3.50
2022-09-28T04:40:12.009Z,3.35
2022-09-28T04:42:39.279Z,4.83
2022-09-28T04:45:07.236Z,3.95
2022-09-28T04:47:34.584Z,4.35
2022-09-28T04:50:01.907Z,4.75
2022-09-28T04:52:29.170Z,4.25
2022-09-28T04:54:56.670Z,4.00
2022-09-28T04:57:24.086Z,3.70
2022-09-28T04:59:51.480Z,4.18
2022-09-28T05:02:18.973Z,6.60
2022-09-28T05:04:46.406Z,7.15
2022-09-28T05:07:13.731Z,7.23
2022-09-28T05:09:41.179Z,7.88
2022-09-28T05:12:10.079Z,4.70
2022-09-28T05:14:37.544Z,4.80
2022-09-28T05:17:05.790Z,4.43
2022-09-28T05:19:35.282Z,7.17
2022-09-28T05:22:04.890Z,7.47
2022-09-28T05:24:32.386Z,6.60
2022-09-28T05:26:59.952Z,5.38
2022-09-28T05:29:31.951Z,5.20
2022-09-28T05:32:01.885Z,5.63
2022-09-28T05:34:29.637Z,8.13
2022-09-28T05:36:57.008Z,5.13
2022-09-28T05:39:24.369Z,6.40
2022-09-28T05:41:51.804Z,4.07
2022-09-28T05:44:19.557Z,3.93
2022-09-28T05:46:47.025Z,4.60
2022-09-28T05:49:14.425Z,4.15
2022-09-28T05:51:41.912Z,3.75
2022-09-28T05:54:09.513Z,3.45
2022-09-28T05:56:36.907Z,4.30
2022-09-28T05:59:05.636Z,4.20
2022-09-28T06:01:33.054Z,4.18
2022-09-28T06:04:00.915Z,3.03
2022-09-28T06:06:28.393Z,3.40
2022-09-28T06:08:55.766Z,3.40
2022-09-28T06:11:27.262Z,2.95
2022-09-28T06:13:56.079Z,4.18
2022-09-28T06:16:24.471Z,5.25
2022-09-28T06:18:51.881Z,5.78
2022-09-28T06:21:19.426Z,4.80
2022-09-28T06:23:49.197Z,2.95
2022-09-28T06:26:17.550Z,5.93
2022-09-28T06:28:45.153Z,5.07
2022-09-28T06:31:12.849Z,4.90
2022-09-28T06:33:42.396Z,5.60
2022-09-28T06:36:10.893Z,7.03
2022-09-28T06:38:38.700Z,4.40
2022-09-28T06:41:06.904Z,5.38
2022-09-28T06:43:35.391Z,6.15
2022-09-28T06:46:03.403Z,4.97
2022-09-28T06:48:32.046Z,3.42
2022-09-28T06:50:59.563Z,3.33
2022-09-28T06:53:28.753Z,3.40
2022-09-28T06:55:57.185Z,4.13
2022-09-28T06:58:27.222Z,4.30
2022-09-28T07:01:01.000Z,4.72
2022-09-28T07:03:28.684Z,3.20
2022-09-28T07:05:56.992Z,3.22
2022-09-28T07:08:26.342Z,3.45
2022-09-28T07:10:56.453Z,3.60
2022-09-28T07:16:13.467Z,3.70
2022-09-28T07:18:42.537Z,3.38
2022-09-28T07:21:17.909Z,4.30
2022-09-28T07:23:54.336Z,3.53
2022-09-28T07:26:24.429Z,3.05
2022-09-28T07:28:52.503Z,2.50
2022-09-28T07:31:20.125Z,3.47
2022-09-28T07:33:51.446Z,3.97
2022-09-28T07:36:21.189Z,2.78
2022-09-28T07:38:48.566Z,3.50
2022-09-28T07:41:22.021Z,3.55
2022-09-28T07:43:50.183Z,2.45
2022-09-28T07:46:17.986Z,3.88
2022-09-28T07:48:46.106Z,2.83
2022-09-28T07:51:13.555Z,2.70
2022-09-28T07:53:41.006Z,3.00
2022-09-28T07:56:09.749Z,3.17
2022-09-28T07:58:39.132Z,3.47
2022-09-28T08:01:10.749Z,3.00
2022-09-28T08:03:39.326Z,3.20
2022-09-28T08:06:10.146Z,3.33
2022-09-28T08:08:38.263Z,3.20
2022-09-28T08:11:07.558Z,3.63
2022-09-28T08:13:35.119Z,4.07
2022-09-28T08:16:04.015Z,3.30
2022-09-28T08:18:32.115Z,3.33
2022-09-28T08:21:17.964Z,2.60
2022-09-28T08:23:45.320Z,2.55
2022-09-28T08:26:15.523Z,3.25
2022-09-28T08:28:45.418Z,2.30
2022-09-28T08:31:13.143Z,3.28
2022-09-28T08:33:42.386Z,2.55
2022-09-28T08:36:11.574Z,2.80
2022-09-28T08:38:39.130Z,3.10
2022-09-28T08:41:33.445Z,3.00
2022-09-28T08:44:00.927Z,2.53
2022-09-28T08:46:39.513Z,2.90
2022-09-28T08:49:32.912Z,3.03
2022-09-28T08:52:03.656Z,2.88
2022-09-28T08:55:03.529Z,2.10
2022-09-28T08:57:49.853Z,2.63
2022-09-28T09:00:40.259Z,2.22
2022-09-28T09:03:12.715Z,2.92
2022-09-28T09:05:56.231Z,2.42
2022-09-28T09:08:40.234Z,2.72
2022-09-28T09:11:27.603Z,2.42
2022-09-28T09:14:28.896Z,2.63
2022-09-28T09:17:05.559Z,2.85
2022-09-28T09:19:56.088Z,3.05
2022-09-28T09:22:36.570Z,2.10
2022-09-28T09:25:27.073Z,2.33
2022-09-28T09:28:03.397Z,2.60
2022-09-28T09:30:41.593Z,2.38
2022-09-28T09:33:27.580Z,2.90
2022-09-28T09:35:58.583Z,2.50
2022-09-28T09:38:44.061Z,2.78
2022-09-28T09:41:36.213Z,2.45
2022-09-28T09:44:12.070Z,2.08
2022-09-28T09:46:43.305Z,2.30
2022-09-28T09:49:25.573Z,2.17
2022-09-28T09:52:27.980Z,2.03
2022-09-28T09:55:15.709Z,2.67
2022-09-28T09:57:54.822Z,2.20
2022-09-28T10:00:22.688Z,2.38
2022-09-28T10:02:51.259Z,2.38
2022-09-28T10:05:24.473Z,2.60
2022-09-28T10:08:01.703Z,2.28
2022-09-28T10:10:30.971Z,2.25
2022-09-28T10:12:58.499Z,3.05
2022-09-28T10:15:31.700Z,2.38
2022-09-28T10:18:07.176Z,3.03
2022-09-28T10:20:38.704Z,1.63
2022-09-28T10:23:11.723Z,2.05
2022-09-28T10:25:39.399Z,2.72
2022-09-28T10:28:08.040Z,2.33
2022-09-28T10:30:44.749Z,2.58
2022-09-28T10:33:29.793Z,2.80
2022-09-28T10:35:58.574Z,1.92
2022-09-28T10:38:26.377Z,2.70
2022-09-28T10:40:58.835Z,1.73
2022-09-28T10:43:35.586Z,2.60
2022-09-28T10:46:07.693Z,2.53
2022-09-28T10:49:00.118Z,2.88
2022-09-28T10:51:49.849Z,2.47
2022-09-28T10:54:23.104Z,1.70
2022-09-28T10:56:52.037Z,2.35
2022-09-28T10:59:31.677Z,2.10
2022-09-28T11:02:14.146Z,2.00
2022-09-28T11:04:44.005Z,2.20
2022-09-28T11:07:44.391Z,2.08
2022-09-28T11:10:22.547Z,2.05
2022-09-28T11:12:50.966Z,1.67
2022-09-28T11:15:21.527Z,2.83
2022-09-28T11:17:49.159Z,2.55
2022-09-28T11:20:27.907Z,2.67
2022-09-28T11:23:30.629Z,2.65
2022-09-28T11:26:18.920Z,2.00
2022-09-28T11:28:53.718Z,2.83
2022-09-28T11:31:29.113Z,2.80
2022-09-28T11:34:14.525Z,2.38
2022-09-28T11:37:24.217Z,2.22
2022-09-28T11:40:24.548Z,2.22
2022-09-28T11:43:33.149Z,2.30
2022-09-28T11:46:41.015Z,2.33
2022-09-28T11:49:32.119Z,2.38
2022-09-28T11:52:12.473Z,2.58
2022-09-28T11:54:47.707Z,1.88
2022-09-28T11:57:21.106Z,2.08
2022-09-28T12:00:08.232Z,1.95
2022-09-28T12:02:37.830Z,2.40
2022-09-28T12:05:22.172Z,2.35
2022-09-28T12:07:59.573Z,2.55
2022-09-28T12:10:47.864Z,1.40
2022-09-28T12:13:27.688Z,1.83
2022-09-28T12:16:45.286Z,2.08
2022-09-28T12:19:02.654Z,2.10
2022-09-28T12:21:54.419Z,1.90
2022-09-28T12:24:30.304Z,1.77
2022-09-28T12:27:11.992Z,1.85
2022-09-28T12:30:05.465Z,2.78
2022-09-28T12:33:02.187Z,1.58
2022-09-28T12:35:41.253Z,2.38
2022-09-28T12:38:36.214Z,1.83
2022-09-28T12:41:12.391Z,2.00
2022-09-28T12:44:17.574Z,1.95
2022-09-28T12:47:09.949Z,2.17
2022-09-28T12:50:37.472Z,2.75
2022-09-28T12:53:09.293Z,2.30
2022-09-28T12:55:58.393Z,2.55
2022-09-28T12:58:42.759Z,1.90
2022-09-28T13:01:31.905Z,2.22
2022-09-28T13:04:36.717Z,2.95
2022-09-28T13:07:18.768Z,2.13
2022-09-28T13:09:52.214Z,2.83
2022-09-28T13:13:00.659Z,2.00
2022-09-28T13:15:52.738Z,2.55
2022-09-28T13:18:35.041Z,2.20
2022-09-28T13:21:38.364Z,2.53
2022-09-28T13:24:31.200Z,2.35
2022-09-28T13:27:04.865Z,1.75
2022-09-28T13:29:35.292Z,2.42
2022-09-28T13:32:03.834Z,3.13
2022-09-28T13:34:36.800Z,2.35
2022-09-28T13:37:21.848Z,3.00
2022-09-28T13:40:00.081Z,2.20
2022-09-28T13:42:51.380Z,2.65
2022-09-28T13:45:21.816Z,1.95
2022-09-28T13:48:16.372Z,2.45
2022-09-28T13:51:04.984Z,2.67
2022-09-28T13:53:35.440Z,2.40
2022-09-28T13:56:36.783Z,2.80
2022-09-28T13:59:27.539Z,2.70
2022-09-28T14:02:28.966Z,2.75
2022-09-28T14:05:04.885Z,2.50
2022-09-28T14:07:35.059Z,2.22
2022-09-28T14:10:28.822Z,3.42
2022-09-28T14:12:56.206Z,2.33
2022-09-28T14:15:29.416Z,2.60
2022-09-28T14:18:22.043Z,2.85
2022-09-28T14:20:58.022Z,2.30
2022-09-28T14:23:37.330Z,2.42
2022-09-28T14:26:39.915Z,2.45
2022-09-28T14:29:29.369Z,2.40
2022-09-28T14:31:58.657Z,2.33
2022-09-28T14:34:33.834Z,2.10
2022-09-28T14:37:21.719Z,1.85
2022-09-28T14:40:08.446Z,2.13
2022-09-28T14:42:35.994Z,3.35
2022-09-28T14:45:06.387Z,3.13
2022-09-28T14:47:38.877Z,3.95
2022-09-28T14:50:39.384Z,3.55
2022-09-28T14:53:27.036Z,2.80
2022-09-28T14:55:58.413Z,3.30
2022-09-28T14:58:28.567Z,2.67
2022-09-28T15:01:20.699Z,3.05
2022-09-28T15:03:52.636Z,2.90
2022-09-28T15:06:23.949Z,3.40
2022-09-28T15:08:51.614Z,3.80
2022-09-28T15:11:25.738Z,2.40
2022-09-28T15:14:06.787Z,2.60
2022-09-28T15:16:34.315Z,3.15
2022-09-28T15:19:23.200Z,3.35
2022-09-28T15:21:51.448Z,4.15
2022-09-28T15:24:34.295Z,4.50
2022-09-28T15:27:04.520Z,4.30
2022-09-28T15:29:33.785Z,3.83
2022-09-28T15:32:01.551Z,3.80
2022-09-28T15:34:52.817Z,6.00
2022-09-28T15:37:29.204Z,8.40
2022-09-28T15:39:58.788Z,6.25
2022-09-28T15:42:28.044Z,5.30
2022-09-28T15:45:09.403Z,4.85
2022-09-28T15:47:40.436Z,5.82
2022-09-28T15:50:29.433Z,5.25
2022-09-28T15:53:04.710Z,4.47
2022-09-28T15:55:36.380Z,5.53
2022-09-28T15:58:23.321Z,5.30
2022-09-28T16:01:13.444Z,7.28
2022-09-28T16:03:45.340Z,9.68
2022-09-28T16:06:13.711Z,11.15
2022-09-28T16:08:46.839Z,14.15
2022-09-28T16:11:19.958Z,13.35
2022-09-28T16:14:01.957Z,11.85
2022-09-28T16:16:43.296Z,11.40
2022-09-28T16:19:28.994Z,12.55
2022-09-28T16:22:03.876Z,14.65
2022-09-28T16:24:40.553Z,8.98
2022-09-28T16:27:25.738Z,5.82
2022-09-28T16:30:17.482Z,7.85
2022-09-28T16:32:58.039Z,7.30
2022-09-28T16:35:28.438Z,7.32
2022-09-28T16:38:05.973Z,5.10
2022-09-28T16:40:34.412Z,5.32
2022-09-28T16:43:06.567Z,6.30
2022-09-28T16:45:43.689Z,5.75
2022-09-28T16:48:20.301Z,4.65
2022-09-28T16:50:50.058Z,4.13
2022-09-28T16:53:38.062Z,4.45
2022-09-28T16:56:06.535Z,4.85
2022-09-28T16:58:34.383Z,6.15
2022-09-28T17:01:04.005Z,7.45
2022-09-28T17:03:33.698Z,7.68
2022-09-28T17:06:09.754Z,8.77
2022-09-28T17:08:38.034Z,7.38
2022-09-28T17:11:24.575Z,6.97
2022-09-28T17:13:57.143Z,6.57
2022-09-28T17:16:57.383Z,6.65
2022-09-28T17:19:26.589Z,5.60
2022-09-28T17:21:54.014Z,5.60
2022-09-28T17:24:21.984Z,5.47
2022-09-28T17:26:55.558Z,4.97
2022-09-28T17:29:24.844Z,6.75
2022-09-28T17:31:53.212Z,6.30
2022-09-28T17:34:23.233Z,5.47
2022-09-28T17:36:52.249Z,5.63
2022-09-28T17:39:20.670Z,5.90
2022-09-28T17:41:50.099Z,5.47
2022-09-28T17:44:21.437Z,6.05
2022-09-28T17:46:52.900Z,5.77
2022-09-28T17:49:21.305Z,5.70
2022-09-28T17:51:51.164Z,7.15
2022-09-28T17:54:21.480Z,7.00
2022-09-28T17:56:49.331Z,8.63
2022-09-28T17:59:26.822Z,7.80
2022-09-28T18:01:54.742Z,5.85
2022-09-28T18:04:50.255Z,6.95
2022-09-28T18:07:09.734Z,6.85
2022-09-28T18:09:37.048Z,6.03
2022-09-28T18:12:05.449Z,7.03
2022-09-28T18:14:36.983Z,5.20
2022-09-28T18:17:04.622Z,6.07
2022-09-28T18:19:32.520Z,6.00
2022-09-28T18:22:01.728Z,7.88
2022-09-28T18:24:37.608Z,5.65
2022-09-28T18:27:05.090Z,5.70
2022-09-28T18:29:33.540Z,5.57
2022-09-28T18:32:01.854Z,5.57
2022-09-28T18:34:31.368Z,5.63
2022-09-28T18:36:58.717Z,6.37
2022-09-28T18:39:26.937Z,6.20
2022-09-28T18:41:54.298Z,5.75
2022-09-28T18:44:21.777Z,5.53
2022-09-28T18:46:52.949Z,5.70
2022-09-28T18:49:22.109Z,5.43
2022-09-28T18:51:50.191Z,6.13
2022-09-28T18:54:17.777Z,4.75
2022-09-28T18:56:45.221Z,7.95
2022-09-28T18:59:13.743Z,6.30
2022-09-28T19:01:42.133Z,6.07
2022-09-28T19:04:10.953Z,6.88
2022-09-28T19:06:41.132Z,6.65
2022-09-28T19:09:09.549Z,6.72
2022-09-28T19:11:37.381Z,6.13
2022-09-28T19:14:04.911Z,6.27
2022-09-28T19:16:35.894Z,5.70
2022-09-28T19:19:04.028Z,5.38
2022-09-28T19:21:31.740Z,5.38
2022-09-28T19:24:03.348Z,6.00
2022-09-28T19:26:31.112Z,6.07
2022-09-28T19:28:59.322Z,5.85
2022-09-28T19:31:27.154Z,5.65
2022-09-28T19:33:54.632Z,5.80
2022-09-28T19:36:24.256Z,5.30
2022-09-28T19:38:53.944Z,6.80
2022-09-28T19:41:44.912Z,8.18
2022-09-28T19:44:19.700Z,12.00
2022-09-28T19:46:47.551Z,11.05
2022-09-28T19:49:19.977Z,13.15
2022-09-28T19:52:14.742Z,14.17
2022-09-28T19:54:37.942Z,15.07
2022-09-28T19:57:08.147Z,11.93
2022-09-28T19:59:37.458Z,14.05
2022-09-28T20:02:07.848Z,13.00
2022-09-28T20:04:35.236Z,13.87
2022-09-28T20:07:04.108Z,11.90
2022-09-28T20:09:32.703Z,9.07
2022-09-28T20:12:00.171Z,12.20
2022-09-28T20:14:32.876Z,12.52
2022-09-28T20:17:04.069Z,8.53
2022-09-28T20:19:31.426Z,9.13
2022-09-28T20:22:03.362Z,7.97
2022-09-28T20:24:31.714Z,8.50
2022-09-28T20:26:59.582Z,8.50
2022-09-28T20:29:26.982Z,9.93
2022-09-28T20:31:54.471Z,11.63
2022-09-28T20:34:21.851Z,7.88
2022-09-28T20:36:49.376Z,6.50
2022-09-28T20:39:16.730Z,6.60
2022-09-28T20:41:46.295Z,6.70
2022-09-28T20:44:13.780Z,7.00
2022-09-28T20:46:41.237Z,6.80
2022-09-28T20:49:08.670Z,6.63
2022-09-28T20:51:35.926Z,7.22
2022-09-28T20:54:03.176Z,7.53
2022-09-28T20:56:38.084Z,6.97
2022-09-28T20:59:10.947Z,6.85
2022-09-28T21:01:38.876Z,6.65
2022-09-28T21:04:07.923Z,6.25
2022-09-28T21:06:37.496Z,6.20
2022-09-28T21:09:07.062Z,6.57
2022-09-28T21:11:35.905Z,7.13
2022-09-28T21:14:06.570Z,6.03
2022-09-28T21:16:35.580Z,6.47
2022-09-28T21:19:03.464Z,6.50
2022-09-28T21:21:30.863Z,6.32
2022-09-28T21:23:58.636Z,5.85
2022-09-28T21:26:28.153Z,6.38
2022-09-28T21:29:06.685Z,7.00
2022-09-28T21:31:47.462Z,6.67
2022-09-28T21:34:20.358Z,6.50
2022-09-28T21:36:51.421Z,6.55
2022-09-28T21:39:20.046Z,6.78
2022-09-28T21:41:47.422Z,6.63
2022-09-28T21:44:14.803Z,6.70
2022-09-28T21:46:42.520Z,5.72
2022-09-28T21:49:10.992Z,5.85
2022-09-28T21:51:38.538Z,6.55
2022-09-28T21:54:06.292Z,6.40
2022-09-28T21:56:35.587Z,6.43
2022-09-28T21:59:03.237Z,6.18
2022-09-28T22:01:31.963Z,5.72
2022-09-28T22:03:59.631Z,7.22
2022-09-28T22:06:30.860Z,5.75
2022-09-28T22:08:58.391Z,7.30
2022-09-28T22:11:28.712Z,5.03
2022-09-28T22:13:58.630Z,7.93
2022-09-28T22:16:30.782Z,6.55
2022-09-28T22:18:59.434Z,6.43
2022-09-28T22:21:29.272Z,6.10
2022-09-28T22:24:04.411Z,5.80
2022-09-28T22:26:34.113Z,6.47
2022-09-28T22:29:07.191Z,7.28
2022-09-28T22:31:37.750Z,8.85
2022-09-28T22:34:06.592Z,8.57
2022-09-28T22:36:34.474Z,6.40
2022-09-28T22:39:02.318Z,6.25
2022-09-28T22:41:30.757Z,5.70
2022-09-28T22:43:59.257Z,6.35
2022-09-28T22:46:28.913Z,6.27
2022-09-28T22:48:58.557Z,6.72
2022-09-28T22:51:27.923Z,6.20
2022-09-28T22:53:56.775Z,6.25
2022-09-28T22:56:24.785Z,5.80
2022-09-28T22:58:52.216Z,6.03
2022-09-28T23:01:25.413Z,6.68
2022-09-28T23:03:54.370Z,5.15
2022-09-28T23:06:24.611Z,6.03
2022-09-28T23:08:53.254Z,5.60
2022-09-28T23:11:23.466Z,5.90
2022-09-28T23:13:52.459Z,6.32
2022-09-28T23:16:20.439Z,5.93
2022-09-28T23:18:49.447Z,6.38
2022-09-28T23:21:19.694Z,6.50
2022-09-28T23:23:52.602Z,6.37
2022-09-28T23:26:22.916Z,5.82
2022-09-28T23:28:50.586Z,5.28
2022-09-28T23:31:21.280Z,5.50
2022-09-28T23:33:49.072Z,6.20
2022-09-28T23:36:17.249Z,5.87
2022-09-28T23:38:44.797Z,6.07
2022-09-28T23:41:12.453Z,6.05
2022-09-28T23:43:39.885Z,5.43
2022-09-28T23:46:07.521Z,5.47
2022-09-28T23:48:35.107Z,6.30
2022-09-28T23:51:02.902Z,5.72
2022-09-28T23:53:32.545Z,5.50
2022-09-28T23:56:00.066Z,5.60
2022-09-28T23:58:27.946Z,5.78
